Metar z pełnej godziny Komunikat METAR ze strony awiacja.imgw.pl Metar G00 EPWA METAR EPWA 220600Z 26013KT 8000 BKN005 02/01 Q1022 NOSIG=